Rechercher aéroport 
image banner adimage banner adimage banner ad
image banner ad

KCPM - Compton/Woodley

Situé à Compton, United States

ICAO - CPM, IATA - CPM

Données fournies par Airmate  

Information générale

Coordonnées: N33°53'24" W118°14'38"
Élévation : 99 feet MSL.
Variation magnétique : 14° East
Voir autres Aéroports à California

Données opérationnelles

Special qualification required
Heure actuelle UTC:
Heure actuelle locale:
METAR: KHHR 251353Z 25004KT 7SM FEW011 OVC017 19/16 A2998 RMK AO2 SLP151 T01940161
Voir NOTAMs / SUP AIP / TFR affectant cet aéroport [VIEW]
Fréquences de communication: [VIEW]

Pistes:

Identifiant RWYQFULongueur (ft)Largeur (ft)SurfaceLDA (ft)
07R89°332260ASPH
25L269°332260ASPH
07L89°332360ASPH
25R269°332360ASPH

Coordonnées de l'aéroport

Adresse: Compton United States

Autres services d'aviation

Écoles de pilotage

Aero Squad

Aero Squad
robin@tamuseum.org+1(310)618-1155

Celebrity Helicopters, Inc

Celebrity Helicopters, Inc
robin@celebheli.com+1(877)999-2099

P3Air Classic

P3Air Classic
classic@p3air.com+1(800)201-8301

Vue satellite de KCPM